Accueil
METAR-TAF:

METAR-TAF

Aéroports :

Aéroport de Chlef

Chlef, Algérie

latitude: 36-13N, longitude: 001-20E, altitude: 143 m

Observation

Le bulletin a été fait il y a 53 minutes, à 07:00 UTC
Vent calme
Température 13°C
Humidité 94%
Pression 1019 hPa
Visibilité: 7000 m
Quelques nuages à une hauteur de 2300 ft
Nuages fragmentés à une hauteur de 10000 ft

METAR: DAOI 090700Z 00000KT 7000 FEW023 BKN100 13/12 Q1019

Heure: 08:53 (07:53 UTC)

Prévision

Le bulletin a été fait il y a 14 heures et 53 minutes, à 17:00 UTC
Prévision valable du 08 à 18 UTC au 09 à 18 UTC
Vent 2 kt de direction variable
Visibilité 10 km ou plus
Quelques nuages à une hauteur de 2600 ft
Nuages épars à une hauteur de 23300 ft
Evoluant progressivement
du 09 à 09 UTC au 09 à 12 UTC
Vent 12 kt de nord-ouest

TAF: DAOI 081700Z 0818/0918 VRB02KT 9999 FEW026 SCT233 BECMG 0909/0912 32012KT

Observations et prévisions météorologiques de plus de 4000 aéroports (messages METAR et TAF).

Les stations disponibles sont représentées par des disques jaunes et rouges sur la carte.

Passer la souris dessus pour voir le nom de la station.

Cliquer dessus pour voir les observations et prévisions météorologiques.

Pour changer de carte: cliquez sur les boutons verts avec une croix noire pour zoomer, sur le bouton vert avec un tiret pour effectuer un zoom arrière, ou sur les flèches vertes pour les cartes adjacentes.


METAR-TAF: